Time;durP1;ratioP1;P1;durP2;ratioP2;P2;SDS_P1;SDS_P2;PMS_P1;PMS_P2;Temp;Humidity;BMP_temperature;BMP_pressure;BME280_temperature;BME280_humidity;BME280_pressure;Samples;Min_cycle;Max_cycle;Signal;HPM_P1;HPM_P2
2022/01/04 00:00:05;;;;;;;35.33;4.53;;;9.40;99.90;;;;;;5111190;27;20638;-71
2022/01/04 00:02:38;;;;;;;43.90;4.63;;;9.40;99.90;;;;;;5108606;28;20181;-71
2022/01/04 00:05:05;;;;;;;44.85;4.40;;;9.40;99.90;;;;;;5111102;27;20189;-71
2022/01/04 00:07:32;;;;;;;32.63;4.10;;;9.30;99.90;;;;;;5111447;27;20185;-71
2022/01/04 00:09:58;;;;;;;35.55;5.28;;;9.40;99.90;;;;;;5117878;28;20185;-71
2022/01/04 00:15:08;;;;;;;48.60;4.50;;;9.40;99.90;;;;;;5110107;28;20184;-71
2022/01/04 00:17:34;;;;;;;40.42;4.72;;;9.40;99.90;;;;;;5107359;28;20707;-71
2022/01/04 00:20:00;;;;;;;44.78;4.75;;;9.40;99.90;;;;;;5116736;28;20644;-72
2022/01/04 00:22:26;;;;;;;37.38;4.57;;;9.40;99.90;;;;;;5106917;28;20242;-71
2022/01/04 00:24:52;;;;;;;42.67;4.57;;;9.40;99.90;;;;;;5139150;27;20185;-70
2022/01/04 00:27:17;;;;;;;35.03;4.43;;;9.40;99.90;;;;;;5116296;28;20189;-71
2022/01/04 00:29:43;;;;;;;41.10;4.95;;;9.40;99.90;;;;;;5107697;28;20184;-72
2022/01/04 00:32:09;;;;;;;40.95;4.15;;;9.40;99.90;;;;;;5112267;28;20193;-71
2022/01/04 00:34:35;;;;;;;45.95;4.88;;;9.40;99.90;;;;;;5123327;28;20185;-72
2022/01/04 00:37:00;;;;;;;40.45;4.97;;;9.40;99.90;;;;;;5111121;28;20193;-72
2022/01/04 00:39:26;;;;;;;40.60;4.40;;;9.40;99.90;;;;;;5111829;28;20181;-73
2022/01/04 00:41:52;;;;;;;46.00;5.53;;;9.40;99.90;;;;;;5115393;28;20220;-72
2022/01/04 00:44:17;;;;;;;46.92;5.82;;;9.50;99.90;;;;;;5111880;28;20563;-72
2022/01/04 00:46:43;;;;;;;36.92;5.85;;;9.40;99.90;;;;;;5115971;27;20374;-72
2022/01/04 00:49:10;;;;;;;44.20;6.43;;;9.50;99.90;;;;;;5112293;28;20185;-72
2022/01/04 00:51:40;;;;;;;40.00;7.10;;;9.40;99.90;;;;;;5117012;28;20264;-73
2022/01/04 00:54:06;;;;;;;44.95;7.60;;;9.50;99.90;;;;;;5117349;28;20188;-72
2022/01/04 00:56:32;;;;;;;35.08;7.43;;;9.50;99.90;;;;;;5107276;28;20189;-72
2022/01/04 00:58:57;;;;;;;35.97;7.20;;;9.50;99.90;;;;;;5090058;28;20216;-73
2022/01/04 01:01:23;;;;;;;39.95;8.23;;;9.50;99.90;;;;;;5106346;28;20196;-72
2022/01/04 01:03:49;;;;;;;46.00;7.78;;;9.50;99.90;;;;;;5112366;28;20660;-72
2022/01/04 01:06:15;;;;;;;48.45;7.53;;;9.50;99.90;;;;;;5120194;28;20748;-72
2022/01/04 01:08:41;;;;;;;47.28;7.20;;;9.50;99.90;;;;;;5115369;28;20178;-72
2022/01/04 01:11:08;;;;;;;42.17;6.90;;;9.50;99.90;;;;;;5106592;28;20221;-71
2022/01/04 01:13:34;;;;;;;30.92;6.75;;;9.50;99.90;;;;;;5110355;28;20193;-71
2022/01/04 01:15:59;;;;;;;31.15;6.88;;;9.50;99.90;;;;;;5106287;28;20250;-72
2022/01/04 01:18:25;;;;;;;52.00;7.72;;;9.60;99.90;;;;;;5107406;28;20209;-72
2022/01/04 01:20:51;;;;;;;31.65;6.40;;;9.50;99.90;;;;;;5108428;28;20641;-72
2022/01/04 01:23:17;;;;;;;34.63;6.53;;;9.50;99.90;;;;;;5104997;28;20180;-73
2022/01/04 01:25:43;;;;;;;39.50;7.40;;;9.60;99.90;;;;;;5108717;28;20193;-72
2022/01/04 01:28:08;;;;;;;35.28;6.82;;;9.60;99.90;;;;;;5111659;28;20703;-72
2022/01/04 01:30:37;;;;;;;28.02;6.03;;;9.60;99.90;;;;;;5112364;28;20185;-73
2022/01/04 01:33:03;;;;;;;37.25;7.07;;;9.50;99.90;;;;;;5117490;27;20241;-73
2022/01/04 01:35:30;;;;;;;36.35;6.72;;;9.60;99.90;;;;;;5099439;28;20190;-73
2022/01/04 01:37:58;;;;;;;35.97;6.13;;;9.60;99.90;;;;;;5107006;28;20245;-73
2022/01/04 01:40:24;;;;;;;34.95;6.50;;;9.60;99.90;;;;;;5112377;27;20217;-73
2022/01/04 01:42:49;;;;;;;39.10;6.60;;;9.60;99.90;;;;;;5112812;27;20260;-73
2022/01/04 01:45:16;;;;;;;33.65;6.03;;;9.60;99.90;;;;;;5111787;27;20273;-73
2022/01/04 01:47:44;;;;;;;39.67;5.97;;;9.60;99.90;;;;;;5110556;27;20252;-73
2022/01/04 01:50:11;;;;;;;28.42;5.68;;;9.60;99.90;;;;;;5116718;27;20284;-73
2022/01/04 01:52:39;;;;;;;32.05;5.57;;;9.60;99.90;;;;;;5093127;27;20177;-73
2022/01/04 01:55:05;;;;;;;28.05;5.35;;;9.60;99.90;;;;;;5111056;27;20224;-73
2022/01/04 01:57:31;;;;;;;33.28;6.18;;;9.50;99.90;;;;;;5122433;27;20200;-73
2022/01/04 01:59:58;;;;;;;35.78;6.45;;;9.60;99.90;;;;;;5112643;27;20308;-73
2022/01/04 02:02:23;;;;;;;45.03;6.72;;;9.60;99.90;;;;;;5118072;27;20210;-73
2022/01/04 02:04:49;;;;;;;23.75;6.20;;;9.50;99.90;;;;;;5094503;27;20174;-73
2022/01/04 02:07:16;;;;;;;33.95;6.68;;;9.50;99.90;;;;;;5109326;27;20267;-73
2022/01/04 02:09:48;;;;;;;25.02;6.43;;;9.50;99.90;;;;;;5113116;27;20646;-74
2022/01/04 02:12:15;;;;;;;26.60;6.53;;;9.50;99.90;;;;;;5117716;27;20219;-72
2022/01/04 02:14:49;;;;;;;29.08;6.40;;;9.40;99.90;;;;;;5121157;27;20188;-72
2022/01/04 02:17:14;;;;;;;41.72;7.05;;;9.50;99.90;;;;;;5111499;27;20205;-73
2022/01/04 02:19:40;;;;;;;28.15;6.05;;;9.40;99.90;;;;;;5112142;27;20197;-73
2022/01/04 02:22:05;;;;;;;32.90;7.13;;;9.40;99.90;;;;;;5116168;27;20181;-72
2022/01/04 02:24:32;;;;;;;29.92;6.38;;;9.40;99.90;;;;;;5123498;27;20330;-73
2022/01/04 02:26:59;;;;;;;27.75;7.72;;;9.40;99.90;;;;;;5114671;27;20528;-72
2022/01/04 02:29:26;;;;;;;28.55;7.40;;;9.40;99.90;;;;;;5113125;27;20279;-73
2022/01/04 02:31:52;;;;;;;32.47;7.55;;;9.40;99.90;;;;;;5111057;27;20233;-72
2022/01/04 02:34:18;;;;;;;26.38;7.38;;;9.40;99.90;;;;;;5109325;27;20201;-72
2022/01/04 02:36:44;;;;;;;42.42;7.95;;;9.40;99.90;;;;;;5112764;27;20590;-72
2022/01/04 02:39:09;;;;;;;30.33;7.93;;;9.40;99.90;;;;;;5111981;27;20201;-72
2022/01/04 02:41:35;;;;;;;37.35;7.43;;;9.40;99.90;;;;;;5106631;28;20312;-72
2022/01/04 02:44:01;;;;;;;31.50;7.65;;;9.40;99.90;;;;;;5099131;27;20177;-73
2022/01/04 02:46:26;;;;;;;37.03;7.20;;;9.40;99.90;;;;;;5108700;27;20185;-73
2022/01/04 02:48:52;;;;;;;39.10;8.18;;;9.40;99.90;;;;;;5117427;27;20185;-72
2022/01/04 02:51:18;;;;;;;39.67;7.30;;;9.40;99.90;;;;;;5105807;27;20213;-73
2022/01/04 02:53:44;;;;;;;33.25;6.43;;;9.40;99.90;;;;;;5109401;28;20196;-72
2022/01/04 02:56:11;;;;;;;40.53;7.32;;;9.40;99.90;;;;;;5113131;27;20613;-72
2022/01/04 02:58:37;;;;;;;36.97;6.97;;;9.40;99.90;;;;;;5114889;27;20208;-72
2022/01/04 03:01:03;;;;;;;36.05;7.70;;;9.40;99.90;;;;;;5108937;28;20192;-74
2022/01/04 03:03:31;;;;;;;32.55;7.72;;;9.40;99.90;;;;;;5107572;28;20176;-73
2022/01/04 03:05:57;;;;;;;34.15;6.95;;;9.40;99.90;;;;;;5108145;27;21769;-74
2022/01/04 03:08:23;;;;;;;32.95;7.00;;;9.40;99.90;;;;;;5120151;27;20265;-73
2022/01/04 03:10:49;;;;;;;32.58;6.40;;;9.50;99.90;;;;;;5110407;27;20200;-73
2022/01/04 03:13:16;;;;;;;35.72;7.07;;;9.50;99.90;;;;;;5107901;28;20930;-73
2022/01/04 03:15:46;;;;;;;39.45;6.95;;;9.50;99.90;;;;;;5107982;27;20200;-73
2022/01/04 03:18:12;;;;;;;41.88;6.53;;;9.50;99.90;;;;;;5107350;28;20217;-73
2022/01/04 03:20:38;;;;;;;29.20;7.00;;;9.40;99.90;;;;;;5112127;27;20661;-73
2022/01/04 03:23:08;;;;;;;31.38;6.88;;;9.50;99.90;;;;;;5109742;27;20262;-73
2022/01/04 03:25:35;;;;;;;37.65;6.38;;;9.50;99.90;;;;;;5124040;27;20168;-73
2022/01/04 03:28:02;;;;;;;34.60;6.07;;;9.50;99.90;;;;;;5111868;27;20272;-73
2022/01/04 03:30:27;;;;;;;29.80;5.78;;;9.50;99.90;;;;;;5118038;27;20263;-73
2022/01/04 03:32:54;;;;;;;24.35;5.63;;;9.50;99.90;;;;;;5116173;27;20192;-72
2022/01/04 03:35:21;;;;;;;30.55;5.68;;;9.50;99.90;;;;;;5111584;28;20265;-72
2022/01/04 03:37:46;;;;;;;33.28;5.97;;;9.50;99.90;;;;;;5116956;27;20205;-71
2022/01/04 03:40:12;;;;;;;25.17;5.57;;;9.50;99.90;;;;;;5115487;27;20199;-72
2022/01/04 03:42:38;;;;;;;35.53;5.63;;;9.50;99.90;;;;;;5107616;27;20556;-71
2022/01/04 03:45:05;;;;;;;31.58;5.43;;;9.50;99.90;;;;;;5111792;27;20184;-71
2022/01/04 03:47:31;;;;;;;38.50;5.50;;;9.50;99.90;;;;;;5117474;27;20192;-72
2022/01/04 03:49:57;;;;;;;25.13;4.93;;;9.50;99.90;;;;;;5099095;28;20208;-71
2022/01/04 03:52:22;;;;;;;32.65;6.35;;;9.50;99.90;;;;;;5112149;27;20192;-72
2022/01/04 03:54:48;;;;;;;42.55;6.57;;;9.50;99.90;;;;;;5110490;27;20255;-72
2022/01/04 03:57:13;;;;;;;37.78;6.10;;;9.50;99.90;;;;;;5109276;28;20189;-73
2022/01/04 03:59:39;;;;;;;30.40;5.10;;;9.50;99.90;;;;;;5108537;27;20181;-72
2022/01/04 04:02:05;;;;;;;33.70;5.90;;;9.50;99.90;;;;;;5112125;27;20221;-72
2022/01/04 04:04:30;;;;;;;36.60;5.40;;;9.50;99.90;;;;;;5119526;27;20180;-70
2022/01/04 04:06:56;;;;;;;27.92;5.82;;;9.50;99.90;;;;;;5111139;28;20258;-72
2022/01/04 04:09:22;;;;;;;33.13;6.05;;;9.50;99.90;;;;;;5114028;27;20229;-72
2022/01/04 04:11:47;;;;;;;27.88;6.00;;;9.40;99.90;;;;;;5111121;27;20273;-72
2022/01/04 04:14:13;;;;;;;28.42;8.07;;;9.50;99.90;;;;;;5116712;27;20214;-72
2022/01/04 04:16:39;;;;;;;22.77;6.78;;;9.50;99.90;;;;;;5109113;27;20193;-71
2022/01/04 04:19:04;;;;;;;38.55;7.28;;;9.50;99.90;;;;;;5109443;27;20692;-71
2022/01/04 04:21:30;;;;;;;26.30;7.25;;;9.50;99.90;;;;;;5109931;28;20184;-71
2022/01/04 04:23:56;;;;;;;30.92;7.40;;;9.40;99.90;;;;;;5110877;28;20186;-71
2022/01/04 04:26:21;;;;;;;36.95;8.52;;;9.50;99.90;;;;;;5105960;28;20165;-71
2022/01/04 04:28:47;;;;;;;32.65;8.68;;;9.40;99.90;;;;;;5109755;28;20192;-71
2022/01/04 04:31:12;;;;;;;36.97;8.45;;;9.40;99.90;;;;;;5107400;28;20264;-71
2022/01/04 04:33:38;;;;;;;36.17;8.60;;;9.40;99.90;;;;;;5094852;28;20183;-73
2022/01/04 04:36:04;;;;;;;39.90;9.18;;;9.40;99.90;;;;;;5113606;28;20238;-72
2022/01/04 04:38:30;;;;;;;32.75;9.55;;;9.40;99.90;;;;;;5109973;28;20227;-72
2022/01/04 04:40:55;;;;;;;29.58;8.70;;;9.40;99.90;;;;;;5107508;28;20869;-72
2022/01/04 04:43:21;;;;;;;32.75;8.90;;;9.40;99.90;;;;;;5105571;28;20189;-73
2022/01/04 04:45:47;;;;;;;30.50;8.10;;;9.40;99.90;;;;;;5104289;28;20173;-72
2022/01/04 04:48:12;;;;;;;33.58;8.68;;;9.40;99.90;;;;;;5106491;28;20228;-73
2022/01/04 04:50:38;;;;;;;30.55;7.57;;;9.40;99.90;;;;;;5116553;28;20185;-73
2022/01/04 04:53:04;;;;;;;26.08;8.48;;;9.40;99.90;;;;;;5109554;28;20238;-72
2022/01/04 04:55:30;;;;;;;28.23;7.13;;;9.40;99.90;;;;;;5112488;27;20196;-72
2022/01/04 04:57:56;;;;;;;30.33;7.43;;;9.30;99.90;;;;;;5110363;28;20676;-72
2022/01/04 05:00:22;;;;;;;27.65;6.05;;;9.30;99.90;;;;;;5108199;28;20247;-71
2022/01/04 05:02:48;;;;;;;20.45;5.50;;;9.30;99.90;;;;;;5113920;27;20231;-72
2022/01/04 05:05:13;;;;;;;20.45;5.25;;;9.30;99.90;;;;;;5120420;27;20231;-73
2022/01/04 05:07:39;;;;;;;18.95;5.00;;;9.20;99.90;;;;;;5120925;27;20182;-74
2022/01/04 05:10:07;;;;;;;19.60;5.28;;;9.20;99.90;;;;;;5122462;27;20217;-72
2022/01/04 05:12:33;;;;;;;21.40;5.68;;;9.20;99.90;;;;;;5119698;27;20203;-71
2022/01/04 05:14:58;;;;;;;23.45;5.93;;;9.20;99.90;;;;;;5146576;27;20188;-71
2022/01/04 05:17:24;;;;;;;30.63;5.85;;;9.20;99.90;;;;;;5114611;27;20209;-72
2022/01/04 05:19:50;;;;;;;23.90;6.65;;;9.20;99.90;;;;;;5109725;28;20238;-72
2022/01/04 05:22:15;;;;;;;29.35;6.93;;;9.20;99.90;;;;;;5108185;28;20177;-71
2022/01/04 05:24:41;;;;;;;34.78;7.57;;;9.20;99.90;;;;;;5112903;27;20190;-71
2022/01/04 05:27:07;;;;;;;27.60;6.95;;;9.20;99.90;;;;;;5110060;27;20185;-71
2022/01/04 05:29:33;;;;;;;32.33;7.93;;;9.20;99.90;;;;;;5113289;27;20670;-71
2022/01/04 05:31:58;;;;;;;23.30;7.85;;;9.20;99.90;;;;;;5095353;28;20173;-71
2022/01/04 05:34:25;;;;;;;35.95;7.78;;;9.20;99.90;;;;;;5120991;27;20642;-72
2022/01/04 05:36:51;;;;;;;36.90;8.57;;;9.10;99.90;;;;;;5113610;27;20197;-71
2022/01/04 05:39:17;;;;;;;29.00;8.40;;;9.20;99.90;;;;;;5112174;27;20220;-71
2022/01/04 05:41:43;;;;;;;37.08;8.65;;;9.20;99.90;;;;;;5109725;27;20218;-71
2022/01/04 05:44:08;;;;;;;32.72;8.38;;;9.20;99.90;;;;;;5107057;28;20193;-71
2022/01/04 05:46:34;;;;;;;34.55;8.65;;;9.20;99.90;;;;;;5105703;27;20190;-70
2022/01/04 05:49:00;;;;;;;28.70;8.57;;;9.20;99.90;;;;;;5113762;27;20185;-71
2022/01/04 05:51:25;;;;;;;27.70;8.20;;;9.20;99.90;;;;;;5109616;27;20185;-72
2022/01/04 05:53:51;;;;;;;38.17;8.55;;;9.20;99.90;;;;;;5115621;27;20185;-71
2022/01/04 05:56:16;;;;;;;34.97;8.77;;;9.30;99.90;;;;;;5110804;27;20225;-71
2022/01/04 05:58:42;;;;;;;43.40;9.00;;;9.20;99.90;;;;;;5110163;28;20709;-71
2022/01/04 06:01:08;;;;;;;33.30;8.57;;;9.30;99.90;;;;;;5106218;27;20238;-72
2022/01/04 06:03:33;;;;;;;33.33;9.20;;;9.20;99.90;;;;;;5104944;27;20212;-72
2022/01/04 06:05:59;;;;;;;32.05;9.02;;;9.30;99.90;;;;;;5118899;27;20189;-72
2022/01/04 06:08:31;;;;;;;37.42;9.07;;;9.30;99.90;;;;;;5095065;27;20653;-73
2022/01/04 06:10:57;;;;;;;39.63;8.45;;;9.30;99.90;;;;;;5106580;27;20272;-71
2022/01/04 06:16:07;;;;;;;38.72;7.90;;;9.30;99.90;;;;;;5111751;27;20193;-72
2022/01/04 06:18:33;;;;;;;34.00;8.02;;;9.30;99.90;;;;;;5120987;27;20211;-72
2022/01/04 06:20:59;;;;;;;37.22;8.02;;;9.30;99.90;;;;;;5118430;27;20554;-73
2022/01/04 06:23:25;;;;;;;33.20;7.75;;;9.30;99.90;;;;;;5092099;28;20193;-72
2022/01/04 06:25:52;;;;;;;37.30;7.88;;;9.30;99.90;;;;;;5117923;27;20189;-72
2022/01/04 06:28:19;;;;;;;31.60;7.47;;;9.40;99.90;;;;;;5094028;27;20181;-73
2022/01/04 06:30:45;;;;;;;29.60;7.32;;;9.40;99.90;;;;;;5108377;27;20193;-73
2022/01/04 06:33:11;;;;;;;43.22;8.23;;;9.40;99.90;;;;;;5108350;28;20192;-72
2022/01/04 06:35:37;;;;;;;51.03;9.35;;;9.40;99.90;;;;;;5106373;28;20642;-71
2022/01/04 06:38:04;;;;;;;38.75;8.23;;;9.40;99.90;;;;;;5111596;27;20241;-73
2022/01/04 06:40:30;;;;;;;34.67;8.55;;;9.40;99.90;;;;;;5113252;27;20357;-72
2022/01/04 06:42:56;;;;;;;33.72;7.95;;;9.40;99.90;;;;;;5116109;27;20272;-72
2022/01/04 06:45:22;;;;;;;36.75;7.28;;;9.40;99.90;;;;;;5110169;28;20551;-73
2022/01/04 06:47:48;;;;;;;36.92;7.90;;;9.40;99.90;;;;;;5090550;28;20185;-72
2022/01/04 06:50:15;;;;;;;35.70;8.30;;;9.30;99.90;;;;;;5110063;28;20177;-72
2022/01/04 06:52:41;;;;;;;37.47;8.05;;;9.30;99.90;;;;;;5107365;28;20197;-72
2022/01/04 06:55:08;;;;;;;32.85;8.35;;;9.30;99.90;;;;;;5108741;28;20235;-73
2022/01/04 06:57:34;;;;;;;31.90;8.07;;;9.30;99.90;;;;;;5112441;27;20213;-73
2022/01/04 06:59:59;;;;;;;33.45;8.93;;;9.30;99.90;;;;;;5108156;27;20255;-73
2022/01/04 07:02:25;;;;;;;33.55;8.63;;;9.30;99.90;;;;;;5106604;28;20192;-72
2022/01/04 07:04:50;;;;;;;37.97;8.05;;;9.30;99.90;;;;;;5109592;27;20646;-73
2022/01/04 07:07:16;;;;;;;37.47;8.35;;;9.40;99.90;;;;;;5114619;27;20261;-72
2022/01/04 07:09:42;;;;;;;29.90;7.90;;;9.30;99.90;;;;;;5111543;27;20232;-72
2022/01/04 07:12:08;;;;;;;47.40;7.70;;;9.30;99.90;;;;;;5105558;28;20197;-72
2022/01/04 07:14:34;;;;;;;43.85;7.50;;;9.30;99.90;;;;;;5108232;27;20177;-72
2022/01/04 07:16:59;;;;;;;30.40;7.70;;;9.30;99.90;;;;;;5111935;27;20185;-72
2022/01/04 07:19:25;;;;;;;28.98;6.65;;;9.30;99.90;;;;;;5112168;27;20204;-72
2022/01/04 07:21:51;;;;;;;40.38;6.40;;;9.30;99.90;;;;;;5107676;28;20192;-73
2022/01/04 07:24:17;;;;;;;31.45;6.60;;;9.30;99.90;;;;;;5092905;28;20657;-72
2022/01/04 07:26:42;;;;;;;40.83;6.93;;;9.30;99.90;;;;;;5108173;27;20189;-72
2022/01/04 07:29:08;;;;;;;36.40;5.90;;;9.30;99.90;;;;;;5106850;28;20193;-73
2022/01/04 07:31:34;;;;;;;28.48;5.38;;;9.30;99.90;;;;;;5105046;27;20178;-73
2022/01/04 07:34:00;;;;;;;46.80;5.53;;;9.30;99.90;;;;;;5110417;27;20268;-73
2022/01/04 07:36:28;;;;;;;34.00;5.13;;;9.30;99.90;;;;;;5103693;28;20212;-72
2022/01/04 07:38:55;;;;;;;32.63;4.55;;;9.30;99.90;;;;;;5109554;27;20523;-72
2022/01/04 07:41:21;;;;;;;33.85;5.20;;;9.30;99.90;;;;;;5105078;28;20224;-72
2022/01/04 07:43:47;;;;;;;32.95;4.85;;;9.30;99.90;;;;;;5105999;27;20196;-74
2022/01/04 07:46:13;;;;;;;41.63;6.03;;;9.40;99.90;;;;;;5103461;28;20185;-73
2022/01/04 07:48:38;;;;;;;33.95;4.43;;;9.40;99.90;;;;;;5095799;28;20217;-72
2022/01/04 07:51:04;;;;;;;42.53;4.35;;;9.40;99.90;;;;;;5103617;27;20332;-72
2022/01/04 07:53:30;;;;;;;33.47;3.97;;;9.40;99.90;;;;;;5102396;28;20189;-73
2022/01/04 07:55:56;;;;;;;36.78;3.78;;;9.40;99.90;;;;;;5097981;28;20217;-72
2022/01/04 07:58:23;;;;;;;28.98;3.95;;;9.30;99.90;;;;;;5134880;27;20209;-71
2022/01/04 08:00:49;;;;;;;30.02;3.65;;;9.30;99.90;;;;;;5085949;28;20720;-74
2022/01/04 08:03:15;;;;;;;34.78;3.67;;;9.30;99.90;;;;;;5091203;28;20183;-73
2022/01/04 08:05:41;;;;;;;38.08;4.00;;;9.30;99.90;;;;;;5104933;27;20185;-73
2022/01/04 08:08:06;;;;;;;30.95;3.90;;;9.30;99.90;;;;;;5106879;27;20311;-72
2022/01/04 08:10:32;;;;;;;27.45;3.72;;;9.30;99.90;;;;;;5105787;27;20246;-74
2022/01/04 08:12:58;;;;;;;29.70;4.13;;;9.30;99.90;;;;;;5104345;28;20605;-71
2022/01/04 08:15:23;;;;;;;30.17;3.90;;;9.30;99.90;;;;;;5104840;28;20218;-74
2022/01/04 08:17:49;;;;;;;34.95;3.88;;;9.30;99.90;;;;;;5105248;28;20258;-74
2022/01/04 08:20:17;;;;;;;31.77;3.83;;;9.30;99.90;;;;;;5111950;28;20176;-75
2022/01/04 08:22:43;;;;;;;31.02;4.43;;;9.20;99.90;;;;;;5103932;28;20276;-75
2022/01/04 08:25:10;;;;;;;30.08;4.47;;;9.20;99.90;;;;;;5106098;28;20260;-73
2022/01/04 08:27:36;;;;;;;42.53;5.18;;;9.20;99.90;;;;;;5137328;27;20287;-74
2022/01/04 08:30:04;;;;;;;28.15;4.10;;;9.20;99.90;;;;;;5107209;28;20677;-72
2022/01/04 08:32:29;;;;;;;27.52;4.80;;;9.20;99.90;;;;;;5105447;28;20212;-75
2022/01/04 08:34:55;;;;;;;29.92;4.30;;;9.20;99.90;;;;;;5102915;28;20279;-75
2022/01/04 08:37:20;;;;;;;26.33;4.22;;;9.20;99.90;;;;;;5105390;28;20193;-75
2022/01/04 08:39:47;;;;;;;25.17;4.65;;;9.20;99.90;;;;;;5112729;27;20264;-74
2022/01/04 08:42:13;;;;;;;31.80;4.40;;;9.20;99.90;;;;;;5106971;27;20218;-75
2022/01/04 08:44:40;;;;;;;36.88;4.88;;;9.20;99.90;;;;;;5052833;28;20206;-75
2022/01/04 08:47:10;;;;;;;29.80;4.00;;;9.20;99.90;;;;;;5066879;28;20205;-76
2022/01/04 08:49:36;;;;;;;34.80;4.80;;;9.20;99.90;;;;;;5069689;28;20193;-75
2022/01/04 08:52:03;;;;;;;30.65;4.65;;;9.20;99.90;;;;;;5069719;28;20182;-76
2022/01/04 08:54:30;;;;;;;28.90;4.25;;;9.20;99.90;;;;;;5051955;28;20183;-74
2022/01/04 08:56:55;;;;;;;20.80;4.45;;;9.20;99.90;;;;;;5066771;28;20175;-74
2022/01/04 08:59:22;;;;;;;32.85;4.70;;;9.20;99.90;;;;;;5069314;28;20264;-72
2022/01/04 09:01:47;;;;;;;30.23;4.20;;;9.20;99.90;;;;;;5069669;28;20185;-74
2022/01/04 09:04:13;;;;;;;24.90;4.10;;;9.20;99.90;;;;;;5069445;28;20183;-73
2022/01/04 09:06:39;;;;;;;24.25;4.05;;;9.20;99.90;;;;;;5068737;28;20205;-72
2022/01/04 09:09:05;;;;;;;30.90;4.72;;;9.20;99.90;;;;;;5068172;28;20210;-73
2022/01/04 09:11:32;;;;;;;21.55;3.70;;;9.20;99.90;;;;;;5051240;28;20198;-77
2022/01/04 09:19:25;;;;;;;32.65;4.43;;;9.20;99.90;;;;;;5068607;28;20680;-74
2022/01/04 09:21:52;;;;;;;27.67;4.75;;;9.20;99.90;;;;;;5069323;28;20182;-75
2022/01/04 09:24:18;;;;;;;28.85;4.38;;;9.20;99.90;;;;;;5067933;28;20194;-74
2022/01/04 09:26:43;;;;;;;22.67;4.82;;;9.20;99.90;;;;;;5068865;28;20217;-75
2022/01/04 09:29:09;;;;;;;30.52;4.57;;;9.20;99.90;;;;;;5068526;28;20218;-75
2022/01/04 09:31:35;;;;;;;27.02;4.28;;;9.20;99.90;;;;;;5068480;28;20697;-75
2022/01/04 09:34:02;;;;;;;16.92;3.63;;;9.20;99.90;;;;;;5067946;28;20270;-75
2022/01/04 09:36:37;;;;;;;18.50;3.50;;;9.20;99.90;;;;;;5068090;28;20231;-73
2022/01/04 09:39:06;;;;;;;18.10;2.70;;;9.20;99.90;;;;;;5067848;28;20211;-75
2022/01/04 09:41:32;;;;;;;16.45;2.80;;;9.20;99.90;;;;;;5092884;28;20240;-75
2022/01/04 09:43:58;;;;;;;18.00;2.30;;;9.30;99.90;;;;;;5107383;28;20184;-74
2022/01/04 09:46:24;;;;;;;10.80;2.15;;;9.30;99.90;;;;;;5117360;28;20186;-72
2022/01/04 09:49:09;;;;;;;9.30;1.80;;;9.30;99.90;;;;;;5108887;28;20637;-74
2022/01/04 09:51:37;;;;;;;9.98;2.22;;;9.30;99.90;;;;;;5133595;27;20193;-74
2022/01/04 09:54:03;;;;;;;13.68;2.25;;;9.40;99.90;;;;;;5116967;28;20559;-73
2022/01/04 09:56:28;;;;;;;11.70;2.92;;;9.40;99.90;;;;;;5115189;28;20191;-75
2022/01/04 09:58:54;;;;;;;13.85;3.58;;;9.40;99.90;;;;;;5114423;28;20338;-76
2022/01/04 10:01:25;;;;;;;22.80;4.30;;;9.40;99.90;;;;;;5117742;28;20190;-75
2022/01/04 10:03:51;;;;;;;23.85;4.50;;;9.40;99.90;;;;;;5114098;28;20567;-76
2022/01/04 10:06:18;;;;;;;21.40;4.20;;;9.30;99.90;;;;;;5115168;28;20181;-74
2022/01/04 10:09:04;;;;;;;16.75;3.88;;;9.30;99.90;;;;;;5115664;28;20200;-76
2022/01/04 10:11:39;;;;;;;10.95;2.78;;;9.30;99.90;;;;;;5106537;28;20192;-74
2022/01/04 10:14:23;;;;;;;16.00;3.40;;;9.30;99.90;;;;;;5108596;28;20206;-75
2022/01/04 10:16:53;;;;;;;18.45;3.60;;;9.30;99.90;;;;;;5108977;28;20588;-75
2022/01/04 10:19:30;;;;;;;18.25;4.05;;;9.30;99.90;;;;;;5108551;28;20200;-75
2022/01/04 10:22:16;;;;;;;15.93;3.83;;;9.30;99.90;;;;;;5109295;28;20241;-75
2022/01/04 10:24:43;;;;;;;12.15;2.72;;;9.30;99.90;;;;;;5107954;28;20847;-75
2022/01/04 10:27:27;;;;;;;13.18;3.25;;;9.30;99.90;;;;;;5107803;28;20178;-74
2022/01/04 10:30:14;;;;;;;10.25;2.20;;;9.30;99.90;;;;;;5108662;28;20177;-75
2022/01/04 10:33:01;;;;;;;12.18;2.78;;;9.30;99.90;;;;;;5113950;28;20203;-74
2022/01/04 10:35:31;;;;;;;6.18;1.90;;;9.20;99.90;;;;;;5108218;28;20556;-74
2022/01/04 10:38:00;;;;;;;8.50;1.92;;;9.20;99.90;;;;;;5107893;28;20296;-75
2022/01/04 10:40:27;;;;;;;10.60;2.20;;;9.20;99.90;;;;;;5072809;28;1060218;-75
2022/01/04 10:42:54;;;;;;;8.23;2.17;;;9.10;99.90;;;;;;5109188;28;21576;-74
2022/01/04 10:45:28;;;;;;;10.02;3.20;;;9.10;99.90;;;;;;5110940;27;20181;-75
2022/01/04 10:47:54;;;;;;;10.88;2.10;;;9.10;99.90;;;;;;5107348;27;20294;-75
2022/01/04 10:50:34;;;;;;;23.55;10.60;;;9.10;99.90;;;;;;5110443;28;20181;-75
2022/01/04 10:53:01;;;;;;;96.75;57.42;;;9.10;99.90;;;;;;5091492;28;20181;-75
2022/01/04 10:55:32;;;;;;;14.55;8.77;;;9.10;99.90;;;;;;5091920;28;20646;-75
2022/01/04 10:57:59;;;;;;;11.13;2.63;;;9.10;99.90;;;;;;5108183;27;20762;-75
2022/01/04 11:00:25;;;;;;;6.75;2.08;;;9.20;99.90;;;;;;5126234;27;20256;-74
2022/01/04 11:02:51;;;;;;;7.15;1.20;;;9.20;99.90;;;;;;5106561;28;20177;-74
2022/01/04 11:05:19;;;;;;;6.75;1.48;;;9.20;99.90;;;;;;5118212;27;20180;-75
2022/01/04 11:08:02;;;;;;;4.22;1.60;;;9.20;99.90;;;;;;5108712;27;20254;-74
2022/01/04 11:10:31;;;;;;;15.75;1.70;;;9.20;99.90;;;;;;5110007;28;20283;-75
2022/01/04 11:12:58;;;;;;;5.60;1.30;;;9.20;99.90;;;;;;5112716;27;20185;-73
2022/01/04 11:15:25;;;;;;;10.35;1.80;;;9.20;99.90;;;;;;5113812;27;20671;-73
2022/01/04 11:17:51;;;;;;;11.55;1.30;;;9.20;99.90;;;;;;5109141;28;20288;-73
2022/01/04 11:20:17;;;;;;;9.57;1.80;;;9.10;99.90;;;;;;5112204;27;20334;-75
2022/01/04 11:22:47;;;;;;;14.93;1.38;;;9.10;99.90;;;;;;5106367;28;20205;-74
2022/01/04 11:25:15;;;;;;;15.38;1.88;;;9.10;99.90;;;;;;5113584;27;20520;-74
2022/01/04 11:27:42;;;;;;;8.73;2.53;;;9.10;99.90;;;;;;5107870;27;20210;-74
2022/01/04 11:30:23;;;;;;;15.35;3.17;;;9.00;99.90;;;;;;5109053;27;20189;-75
2022/01/04 11:32:54;;;;;;;10.40;1.83;;;9.00;99.90;;;;;;5107869;27;20204;-75
2022/01/04 11:35:21;;;;;;;12.40;1.98;;;9.00;99.90;;;;;;5105903;28;20572;-74
2022/01/04 11:38:00;;;;;;;8.98;1.50;;;9.00;99.90;;;;;;5117553;27;20204;-75
2022/01/04 11:40:26;;;;;;;9.50;1.10;;;9.00;99.90;;;;;;5109587;27;20196;-74
2022/01/04 11:42:53;;;;;;;11.70;1.30;;;8.90;99.90;;;;;;5118343;27;21008;-74
2022/01/04 11:45:44;;;;;;;16.85;1.23;;;8.90;99.90;;;;;;5117582;27;20323;-75
2022/01/04 11:48:33;;;;;;;8.60;0.88;;;8.80;99.90;;;;;;5109964;27;20181;-75
2022/01/04 11:51:08;;;;;;;13.30;1.20;;;8.80;99.90;;;;;;5106817;28;20189;-76
2022/01/04 11:53:35;;;;;;;8.85;1.38;;;8.80;99.90;;;;;;5110272;27;20319;-75
2022/01/04 11:56:04;;;;;;;7.35;1.33;;;8.80;99.90;;;;;;5113943;27;20224;-74
2022/01/04 11:58:54;;;;;;;15.80;1.33;;;8.80;99.90;;;;;;5112791;27;20241;-73
2022/01/04 12:01:27;;;;;;;9.38;1.40;;;8.70;99.90;;;;;;5107530;27;20189;-74
2022/01/04 12:03:53;;;;;;;4.15;1.00;;;8.70;99.90;;;;;;5111702;27;20220;-74
2022/01/04 12:06:21;;;;;;;4.97;0.90;;;8.70;99.90;;;;;;5121464;27;20208;-77
2022/01/04 12:08:48;;;;;;;8.65;1.17;;;8.70;99.90;;;;;;5117004;27;20191;-74
2022/01/04 12:11:26;;;;;;;9.65;1.30;;;8.60;99.90;;;;;;5107830;28;20195;-75
2022/01/04 12:13:53;;;;;;;10.07;1.25;;;8.60;99.90;;;;;;5108943;28;20189;-76
2022/01/04 12:16:39;;;;;;;10.10;2.50;;;8.60;99.90;;;;;;5108691;28;20181;-76
2022/01/04 12:19:07;;;;;;;5.10;1.10;;;8.60;99.90;;;;;;5116265;27;20766;-76
2022/01/04 12:21:42;;;;;;;6.97;1.20;;;8.70;99.90;;;;;;5109468;28;20185;-75
2022/01/04 12:24:10;;;;;;;8.85;1.90;;;8.70;99.90;;;;;;5110394;27;20204;-75
2022/01/04 12:26:38;;;;;;;11.77;1.50;;;8.80;99.90;;;;;;5113205;28;20180;-77
2022/01/04 12:29:09;;;;;;;5.22;0.90;;;8.80;99.90;;;;;;5116973;27;20192;-75
2022/01/04 12:31:46;;;;;;;10.13;2.35;;;8.80;99.90;;;;;;5106509;28;20779;-77
2022/01/04 12:34:31;;;;;;;6.45;1.00;;;8.80;99.90;;;;;;5108972;28;20196;-73
2022/01/04 12:36:58;;;;;;;6.50;1.00;;;8.80;99.90;;;;;;5107995;28;20649;-76
2022/01/04 12:39:36;;;;;;;15.20;2.00;;;8.90;99.90;;;;;;5121486;27;20216;-74
2022/01/04 12:42:03;;;;;;;10.38;1.77;;;8.90;99.90;;;;;;5093671;28;20227;-75
2022/01/04 12:44:30;;;;;;;7.03;1.38;;;8.90;99.90;;;;;;5126677;27;20172;-76
2022/01/04 12:46:56;;;;;;;4.65;1.70;;;9.00;99.90;;;;;;5104814;28;20188;-76
2022/01/04 12:49:24;;;;;;;10.20;1.33;;;9.00;99.90;;;;;;5118840;28;20229;-74
2022/01/04 12:51:53;;;;;;;9.43;1.40;;;9.00;99.90;;;;;;5108347;28;20197;-75
2022/01/04 12:54:34;;;;;;;10.10;1.77;;;9.00;99.90;;;;;;5117702;28;20199;-77
2022/01/04 12:57:01;;;;;;;17.25;2.67;;;9.00;99.90;;;;;;5107979;28;20211;-76
2022/01/04 12:59:35;;;;;;;10.40;1.25;;;9.00;99.90;;;;;;5108147;28;20716;-76